createdAt,value
2018-06-14T00:00:16.510Z,101165.56
2018-06-14T00:00:38.420Z,101168.19
2018-06-14T00:01:00.204Z,101166.88
2018-06-14T00:01:22.012Z,101164.26
2018-06-14T00:01:43.774Z,101169.90
2018-06-14T00:02:05.553Z,101162.42
2018-06-14T00:02:27.326Z,101167.67
2018-06-14T00:02:49.088Z,101168.59
2018-06-14T00:03:10.846Z,101170.42
2018-06-14T00:03:32.644Z,101169.50
2018-06-14T00:03:54.408Z,101169.11
2018-06-14T00:04:16.172Z,101168.19
2018-06-14T00:04:37.960Z,101172.13
2018-06-14T00:04:59.716Z,101179.20
2018-06-14T00:05:21.499Z,101171.20
2018-06-14T00:05:43.272Z,101176.06
2018-06-14T00:06:05.026Z,101174.75
2018-06-14T00:06:26.792Z,101176.06
2018-06-14T00:06:48.567Z,101177.89
2018-06-14T00:07:10.341Z,101173.56
2018-06-14T00:07:32.120Z,101173.44
2018-06-14T00:07:53.923Z,101172.13
2018-06-14T00:08:15.675Z,101177.38
2018-06-14T00:08:37.459Z,101176.06
2018-06-14T00:08:59.226Z,101178.69
2018-06-14T00:09:20.988Z,101179.60
2018-06-14T00:09:42.749Z,101173.44
2018-06-14T00:10:04.520Z,101172.52
2018-06-14T00:10:26.313Z,101173.44
2018-06-14T00:10:48.073Z,101171.73
2018-06-14T00:11:09.811Z,101172.13
2018-06-14T00:11:31.563Z,101166.88
2018-06-14T00:11:53.328Z,101171.73
2018-06-14T00:12:15.083Z,101173.05
2018-06-14T00:12:36.840Z,101173.96
2018-06-14T00:12:58.600Z,101169.11
2018-06-14T00:13:20.356Z,101165.97
2018-06-14T00:13:42.302Z,101167.41
2018-06-14T00:14:04.048Z,101171.34
2018-06-14T00:14:25.835Z,101166.88
2018-06-14T00:14:47.616Z,101171.34
2018-06-14T00:15:10.146Z,101169.11
2018-06-14T00:15:31.914Z,101170.42
2018-06-14T00:15:53.666Z,101171.73
2018-06-14T00:16:15.422Z,101168.72
2018-06-14T00:16:37.179Z,101169.11
2018-06-14T00:16:58.939Z,101167.80
2018-06-14T00:17:20.705Z,101164.12
2018-06-14T00:17:42.469Z,101160.72
2018-06-14T00:18:04.320Z,101168.19
2018-06-14T00:18:26.096Z,101159.93
2018-06-14T00:18:47.852Z,101164.26
2018-06-14T00:19:09.662Z,101166.09
2018-06-14T00:19:31.416Z,101169.50
2018-06-14T00:19:53.212Z,101171.34
2018-06-14T00:20:14.976Z,101166.75
2018-06-14T00:20:36.747Z,101165.05
2018-06-14T00:20:58.516Z,101165.17
2018-06-14T00:21:20.276Z,101164.26
2018-06-14T00:21:42.049Z,101166.88
2018-06-14T00:22:03.803Z,101164.66
2018-06-14T00:22:25.570Z,101165.56
2018-06-14T00:22:47.328Z,101168.59
2018-06-14T00:23:09.094Z,101165.17
2018-06-14T00:23:30.842Z,101161.63
2018-06-14T00:23:52.612Z,101162.95
2018-06-14T00:24:14.365Z,101160.72
2018-06-14T00:24:36.110Z,101166.48
2018-06-14T00:24:57.871Z,101162.81
2018-06-14T00:25:19.614Z,101164.66
2018-06-14T00:25:41.392Z,101165.97
2018-06-14T00:26:03.148Z,101168.19
2018-06-14T00:26:24.911Z,101162.55
2018-06-14T00:26:46.674Z,101160.72
2018-06-14T00:27:08.443Z,101165.56
2018-06-14T00:27:30.187Z,101162.55
2018-06-14T00:27:51.979Z,101161.63
2018-06-14T00:28:13.733Z,101159.02
2018-06-14T00:28:35.505Z,101157.30
2018-06-14T00:28:57.276Z,101161.23
2018-06-14T00:29:19.035Z,101159.93
2018-06-14T00:29:40.790Z,101161.23
2018-06-14T00:30:02.554Z,101162.95
2018-06-14T00:30:24.366Z,101167.80
2018-06-14T00:30:46.130Z,101162.95
2018-06-14T00:31:07.887Z,101159.41
2018-06-14T00:31:29.647Z,101162.03
2018-06-14T00:31:51.424Z,101160.72
2018-06-14T00:32:13.201Z,101160.33
2018-06-14T00:32:34.938Z,101162.95
2018-06-14T00:32:56.694Z,101159.41
2018-06-14T00:33:18.609Z,101160.72
2018-06-14T00:33:40.362Z,101166.48
2018-06-14T00:34:02.122Z,101161.63
2018-06-14T00:34:23.895Z,101160.72
2018-06-14T00:34:45.667Z,101165.56
2018-06-14T00:35:07.435Z,101162.03
2018-06-14T00:35:29.199Z,101163.86
2018-06-14T00:35:51.148Z,101161.63
2018-06-14T00:36:12.899Z,101157.70
2018-06-14T00:36:34.667Z,101160.33
2018-06-14T00:36:56.433Z,101153.77
2018-06-14T00:37:18.213Z,101151.14
2018-06-14T00:37:39.978Z,101151.14
2018-06-14T00:38:01.760Z,101152.45
2018-06-14T00:38:23.528Z,101152.06
2018-06-14T00:38:45.274Z,101150.75
2018-06-14T00:39:07.321Z,101151.14
2018-06-14T00:39:29.082Z,101152.45
2018-06-14T00:39:50.837Z,101148.39
2018-06-14T00:40:12.647Z,101150.75
2018-06-14T00:40:34.398Z,101145.89
2018-06-14T00:40:56.156Z,101148.91
2018-06-14T00:41:17.944Z,101144.06
2018-06-14T00:41:39.704Z,101149.83
2018-06-14T00:42:01.489Z,101147.60
2018-06-14T00:42:23.250Z,101142.75
2018-06-14T00:42:44.992Z,101149.83
2018-06-14T00:43:06.874Z,101148.00
2018-06-14T00:43:28.641Z,101145.37
2018-06-14T00:43:50.437Z,101150.62
2018-06-14T00:44:12.280Z,101146.29
2018-06-14T00:44:34.048Z,101148.13
2018-06-14T00:44:55.828Z,101148.52
2018-06-14T00:45:17.599Z,101150.22
2018-06-14T00:45:39.385Z,101149.83
2018-06-14T00:46:01.140Z,101151.14
2018-06-14T00:46:22.905Z,101149.83
2018-06-14T00:46:44.666Z,101151.66
2018-06-14T00:47:06.423Z,101157.30
2018-06-14T00:47:28.223Z,101148.91
2018-06-14T00:47:50.115Z,101150.22
2018-06-14T00:48:11.862Z,101151.53
2018-06-14T00:48:33.619Z,101150.62
2018-06-14T00:48:55.395Z,101152.45
2018-06-14T00:49:17.139Z,101148.52
2018-06-14T00:49:38.895Z,101152.06
2018-06-14T00:50:00.676Z,101150.22
2018-06-14T00:50:22.428Z,101148.52
2018-06-14T00:50:44.219Z,101148.00
2018-06-14T00:51:05.992Z,101150.09
2018-06-14T00:51:27.747Z,101146.69
2018-06-14T00:51:49.508Z,101146.69
2018-06-14T00:52:11.273Z,101145.77
2018-06-14T00:52:33.027Z,101144.85
2018-06-14T00:52:54.781Z,101144.98
2018-06-14T00:53:16.526Z,101148.00
2018-06-14T00:53:38.263Z,101137.50
2018-06-14T00:54:00.017Z,101145.89
2018-06-14T00:54:21.820Z,101139.21
2018-06-14T00:54:43.580Z,101140.52
2018-06-14T00:55:05.352Z,101141.83
2018-06-14T00:55:27.111Z,101147.60
2018-06-14T00:55:48.882Z,101146.69
2018-06-14T00:56:10.632Z,101148.00
2018-06-14T00:56:32.387Z,101148.00
2018-06-14T00:56:54.142Z,101145.89
2018-06-14T00:57:15.907Z,101147.60
2018-06-14T00:57:37.668Z,101144.06
2018-06-14T00:57:59.419Z,101142.36
2018-06-14T00:58:21.179Z,101141.44
2018-06-14T00:58:42.939Z,101141.96
2018-06-14T00:59:04.702Z,101144.98
2018-06-14T00:59:26.472Z,101144.45
2018-06-14T00:59:48.240Z,101148.00
2018-06-14T01:00:10.023Z,101147.87
2018-06-14T01:00:31.778Z,101143.02
2018-06-14T01:00:53.548Z,101146.03
2018-06-14T01:01:15.291Z,101148.66
2018-06-14T01:01:37.033Z,101146.95
2018-06-14T01:01:58.812Z,101144.85
2018-06-14T01:02:20.576Z,101147.87
2018-06-14T01:02:42.332Z,101144.72
2018-06-14T01:03:04.092Z,101145.77
2018-06-14T01:03:25.894Z,101146.16
2018-06-14T01:03:47.692Z,101143.93
2018-06-14T01:04:09.456Z,101143.54
2018-06-14T01:04:31.223Z,101144.72
2018-06-14T01:04:52.996Z,101147.34
2018-06-14T01:05:14.735Z,101143.93
2018-06-14T01:05:36.512Z,101142.23
2018-06-14T01:05:58.287Z,101147.47
2018-06-14T01:06:20.069Z,101147.08
2018-06-14T01:06:41.842Z,101149.31
2018-06-14T01:07:03.596Z,101144.45
2018-06-14T01:07:25.381Z,101148.91
2018-06-14T01:07:47.137Z,101144.06
2018-06-14T01:08:08.896Z,101150.22
2018-06-14T01:08:30.784Z,101148.39
2018-06-14T01:08:52.530Z,101141.83
2018-06-14T01:09:14.300Z,101148.39
2018-06-14T01:09:36.066Z,101144.59
2018-06-14T01:09:57.815Z,101142.63
2018-06-14T01:10:19.585Z,101148.78
2018-06-14T01:10:41.363Z,101144.85
2018-06-14T01:11:03.110Z,101146.16
2018-06-14T01:11:24.860Z,101147.08
2018-06-14T01:11:46.629Z,101144.06
2018-06-14T01:12:08.421Z,101147.08
2018-06-14T01:12:30.168Z,101146.69
2018-06-14T01:12:51.920Z,101140.12
2018-06-14T01:13:13.904Z,101145.37
2018-06-14T01:13:35.657Z,101146.29
2018-06-14T01:13:57.420Z,101141.05
2018-06-14T01:14:19.181Z,101149.31
2018-06-14T01:14:40.965Z,101140.12
2018-06-14T01:15:02.718Z,101141.05
2018-06-14T01:15:24.470Z,101140.52
2018-06-14T01:15:46.247Z,101138.81
2018-06-14T01:16:08.008Z,101137.90
2018-06-14T01:16:29.785Z,101137.50
2018-06-14T01:16:51.544Z,101142.75
2018-06-14T01:17:13.293Z,101143.14
2018-06-14T01:17:35.051Z,101139.21
2018-06-14T01:17:56.800Z,101137.38
2018-06-14T01:18:18.548Z,101133.97
2018-06-14T01:18:40.316Z,101130.03
2018-06-14T01:19:02.063Z,101133.17
2018-06-14T01:19:23.811Z,101132.78
2018-06-14T01:19:45.764Z,101131.47
2018-06-14T01:20:07.721Z,101132.78
2018-06-14T01:20:29.493Z,101128.84
2018-06-14T01:20:51.278Z,101126.22
2018-06-14T01:21:13.043Z,101127.66
2018-06-14T01:21:34.811Z,101134.22
2018-06-14T01:21:56.568Z,101128.05
2018-06-14T01:22:18.322Z,101134.74
2018-06-14T01:22:40.091Z,101125.95
2018-06-14T01:23:01.882Z,101128.58
2018-06-14T01:23:23.644Z,101124.64
2018-06-14T01:23:45.401Z,101126.88
2018-06-14T01:24:07.251Z,101125.56
2018-06-14T01:24:29.126Z,101126.08
2018-06-14T01:24:50.924Z,101130.02
2018-06-14T01:25:12.707Z,101127.92
2018-06-14T01:25:34.461Z,101127.00
2018-06-14T01:25:56.228Z,101133.69
2018-06-14T01:26:18.031Z,101124.11
2018-06-14T01:26:39.771Z,101131.98
2018-06-14T01:27:01.525Z,101128.17
2018-06-14T01:27:23.296Z,101128.73
2018-06-14T01:27:45.053Z,101132.80
2018-06-14T01:28:06.803Z,101125.45
2018-06-14T01:28:28.567Z,101128.98
2018-06-14T01:28:50.326Z,101127.80
2018-06-14T01:29:12.191Z,101130.03
2018-06-14T01:29:33.960Z,101127.41
2018-06-14T01:29:55.730Z,101128.32
2018-06-14T01:30:17.492Z,101123.47
2018-06-14T01:30:39.260Z,101131.86
2018-06-14T01:31:01.041Z,101128.72
2018-06-14T01:31:22.796Z,101126.62
2018-06-14T01:31:44.569Z,101128.45
2018-06-14T01:32:06.326Z,101126.22
2018-06-14T01:32:28.099Z,101125.30
2018-06-14T01:32:49.872Z,101127.92
2018-06-14T01:33:11.626Z,101120.45
2018-06-14T01:33:33.391Z,101120.45
2018-06-14T01:33:55.148Z,101129.23
2018-06-14T01:34:16.903Z,101123.20
2018-06-14T01:34:38.664Z,101123.08
2018-06-14T01:35:00.425Z,101116.13
2018-06-14T01:35:22.182Z,101120.45
2018-06-14T01:35:43.918Z,101119.14
2018-06-14T01:36:05.708Z,101123.99
2018-06-14T01:36:27.462Z,101120.05
2018-06-14T01:36:49.237Z,101127.92
2018-06-14T01:37:11.008Z,101121.37
2018-06-14T01:37:32.758Z,101122.68
2018-06-14T01:37:54.524Z,101119.66
2018-06-14T01:38:16.267Z,101120.97
2018-06-14T01:38:38.027Z,101117.83
2018-06-14T01:38:59.783Z,101119.27
2018-06-14T01:39:21.538Z,101120.45
2018-06-14T01:39:43.307Z,101118.35
2018-06-14T01:40:05.067Z,101122.28
2018-06-14T01:40:26.814Z,101117.03
2018-06-14T01:40:48.562Z,101114.81
2018-06-14T01:41:10.409Z,101115.20
2018-06-14T01:41:32.156Z,101113.50
2018-06-14T01:41:53.919Z,101112.19
2018-06-14T01:42:15.680Z,101119.66
2018-06-14T01:42:37.455Z,101115.73
2018-06-14T01:42:59.230Z,101114.41
2018-06-14T01:43:21.632Z,101121.50
2018-06-14T01:43:43.416Z,101124.13
2018-06-14T01:44:05.181Z,101118.35
2018-06-14T01:44:26.954Z,101119.66
2018-06-14T01:44:48.696Z,101119.27
2018-06-14T01:45:10.454Z,101119.27
2018-06-14T01:45:32.220Z,101120.19
2018-06-14T01:45:53.976Z,101119.27
2018-06-14T01:46:15.752Z,101118.87
2018-06-14T01:46:37.520Z,101118.87
2018-06-14T01:46:59.292Z,101117.56
2018-06-14T01:47:21.061Z,101114.02
2018-06-14T01:47:42.816Z,101119.39
2018-06-14T01:48:04.571Z,101119.27
2018-06-14T01:48:26.327Z,101114.94
2018-06-14T01:48:48.094Z,101115.33
2018-06-14T01:49:09.866Z,101119.79
2018-06-14T01:49:31.619Z,101120.19
2018-06-14T01:49:53.408Z,101118.87
2018-06-14T01:50:15.162Z,101114.02
2018-06-14T01:50:37.363Z,101117.56
2018-06-14T01:50:59.135Z,101114.94
2018-06-14T01:51:20.889Z,101118.48
2018-06-14T01:51:42.651Z,101107.46
2018-06-14T01:52:04.412Z,101112.44
2018-06-14T01:52:26.162Z,101107.46
2018-06-14T01:52:47.916Z,101109.30
2018-06-14T01:53:09.724Z,101106.67
2018-06-14T01:53:31.476Z,101110.21
2018-06-14T01:53:53.232Z,101107.19
2018-06-14T01:54:14.996Z,101108.50
2018-06-14T01:54:36.751Z,101112.05
2018-06-14T01:54:58.510Z,101103.12
2018-06-14T01:55:20.376Z,101105.88
2018-06-14T01:55:42.115Z,101107.19
2018-06-14T01:56:03.894Z,101101.03
2018-06-14T01:56:25.652Z,101099.72
2018-06-14T01:56:47.430Z,101096.70
2018-06-14T01:57:09.195Z,101106.27
2018-06-14T01:57:30.984Z,101109.42
2018-06-14T01:57:52.730Z,101108.11
2018-06-14T01:58:14.487Z,101106.27
2018-06-14T01:58:36.234Z,101100.23
2018-06-14T01:58:57.988Z,101105.88
2018-06-14T01:59:19.742Z,101107.19
2018-06-14T01:59:41.495Z,101101.03
2018-06-14T02:00:03.252Z,101100.63
2018-06-14T02:00:25.013Z,101101.55
2018-06-14T02:00:46.755Z,101105.88
2018-06-14T02:01:08.529Z,101106.80
2018-06-14T02:01:30.286Z,101097.48
2018-06-14T02:01:52.035Z,101096.30
2018-06-14T02:02:13.774Z,101098.13
2018-06-14T02:02:35.761Z,101101.55
2018-06-14T02:02:57.521Z,101100.63
2018-06-14T02:03:19.292Z,101096.70
2018-06-14T02:03:41.031Z,101092.76
2018-06-14T02:04:02.800Z,101091.05
2018-06-14T02:04:24.554Z,101093.55
2018-06-14T02:04:46.317Z,101094.08
2018-06-14T02:05:08.070Z,101091.45
2018-06-14T02:05:29.947Z,101094.98
2018-06-14T02:05:51.712Z,101094.98
2018-06-14T02:06:13.494Z,101090.53
2018-06-14T02:06:35.262Z,101092.76
2018-06-14T02:06:57.008Z,101094.08
2018-06-14T02:07:18.773Z,101098.01
2018-06-14T02:07:40.543Z,101097.61
2018-06-14T02:08:02.301Z,101095.38
2018-06-14T02:08:24.073Z,101088.83
2018-06-14T02:08:45.844Z,101093.68
2018-06-14T02:09:08.160Z,101088.30
2018-06-14T02:09:29.918Z,101088.30
2018-06-14T02:09:51.675Z,101091.45
2018-06-14T02:10:13.424Z,101086.59
2018-06-14T02:10:35.421Z,101088.83
2018-06-14T02:10:57.172Z,101090.14
2018-06-14T02:11:18.939Z,101086.99
2018-06-14T02:11:40.691Z,101087.91
2018-06-14T02:12:02.450Z,101089.22
2018-06-14T02:12:24.203Z,101089.22
2018-06-14T02:12:45.951Z,101092.36
2018-06-14T02:13:07.707Z,101087.52
2018-06-14T02:13:29.465Z,101088.30
2018-06-14T02:13:51.203Z,101091.84
2018-06-14T02:14:12.956Z,101090.14
2018-06-14T02:14:34.710Z,101092.23
2018-06-14T02:14:56.496Z,101094.47
2018-06-14T02:15:18.236Z,101087.91
2018-06-14T02:15:39.990Z,101092.36
2018-06-14T02:16:02.523Z,101089.61
2018-06-14T02:16:24.307Z,101092.23
2018-06-14T02:16:46.054Z,101087.91
2018-06-14T02:17:07.828Z,101089.61
2018-06-14T02:17:29.590Z,101086.99
2018-06-14T02:17:51.351Z,101085.68
2018-06-14T02:18:13.098Z,101087.52
2018-06-14T02:18:34.855Z,101089.61
2018-06-14T02:18:56.635Z,101086.99
2018-06-14T02:19:18.390Z,101086.99
2018-06-14T02:19:40.129Z,101087.39
2018-06-14T02:20:01.896Z,101082.14
2018-06-14T02:20:23.655Z,101085.68
2018-06-14T02:20:45.410Z,101084.37
2018-06-14T02:21:07.632Z,101085.68
2018-06-14T02:21:29.404Z,101087.91
2018-06-14T02:21:51.159Z,101082.14
2018-06-14T02:22:12.907Z,101084.37
2018-06-14T02:22:34.660Z,101080.30
2018-06-14T02:22:56.420Z,101081.22
2018-06-14T02:23:18.184Z,101082.14
2018-06-14T02:23:39.970Z,101079.91
2018-06-14T02:24:01.712Z,101084.77
2018-06-14T02:24:23.463Z,101082.14
2018-06-14T02:24:45.209Z,101081.22
2018-06-14T02:25:07.043Z,101079.91
2018-06-14T02:25:28.797Z,101085.16
2018-06-14T02:25:50.563Z,101082.93
2018-06-14T02:26:12.318Z,101088.30
2018-06-14T02:26:34.083Z,101082.53
2018-06-14T02:26:55.840Z,101082.14
2018-06-14T02:27:17.608Z,101086.99
2018-06-14T02:27:39.354Z,101082.14
2018-06-14T02:28:01.116Z,101084.37
2018-06-14T02:28:22.866Z,101084.24
2018-06-14T02:28:44.615Z,101081.63
2018-06-14T02:29:06.385Z,101083.05
2018-06-14T02:29:28.143Z,101083.84
2018-06-14T02:29:49.886Z,101082.53
2018-06-14T02:30:11.657Z,101079.91
2018-06-14T02:30:33.405Z,101083.45
2018-06-14T02:30:55.158Z,101086.08
2018-06-14T02:31:16.936Z,101081.22
2018-06-14T02:31:38.704Z,101086.08
2018-06-14T02:32:00.463Z,101087.39
2018-06-14T02:32:22.218Z,101082.53
2018-06-14T02:32:43.978Z,101081.22
2018-06-14T02:33:06.082Z,101083.05
2018-06-14T02:33:27.996Z,101082.53
2018-06-14T02:33:49.746Z,101079.91
2018-06-14T02:34:11.508Z,101084.77
2018-06-14T02:34:33.251Z,101079.00
2018-06-14T02:34:54.993Z,101082.53
2018-06-14T02:35:16.740Z,101084.77
2018-06-14T02:35:38.491Z,101088.70
2018-06-14T02:36:00.244Z,101084.24
2018-06-14T02:36:22.010Z,101081.22
2018-06-14T02:36:43.856Z,101079.00
2018-06-14T02:37:05.815Z,101083.84
2018-06-14T02:37:27.587Z,101087.39
2018-06-14T02:37:49.338Z,101082.53
2018-06-14T02:38:11.096Z,101085.16
2018-06-14T02:38:32.834Z,101085.55
2018-06-14T02:38:54.589Z,101083.84
2018-06-14T02:39:16.341Z,101080.30
2018-06-14T02:39:38.081Z,101087.78
2018-06-14T02:39:59.839Z,101082.93
2018-06-14T02:40:21.585Z,101083.84
2018-06-14T02:40:43.335Z,101085.55
2018-06-14T02:41:05.074Z,101083.33
2018-06-14T02:41:26.860Z,101091.33
2018-06-14T02:41:48.616Z,101085.55
2018-06-14T02:42:10.370Z,101085.55
2018-06-14T02:42:32.130Z,101078.47
2018-06-14T02:42:53.881Z,101078.08
2018-06-14T02:43:15.635Z,101083.84
2018-06-14T02:43:37.384Z,101082.93
2018-06-14T02:43:59.140Z,101083.84
2018-06-14T02:44:20.886Z,101080.30
2018-06-14T02:44:42.659Z,101076.38
2018-06-14T02:45:04.412Z,101080.30
2018-06-14T02:45:26.151Z,101081.63
2018-06-14T02:45:48.157Z,101078.47
2018-06-14T02:46:09.933Z,101084.64
2018-06-14T02:46:31.705Z,101085.03
2018-06-14T02:46:53.459Z,101079.00
2018-06-14T02:47:15.206Z,101081.63
2018-06-14T02:47:36.956Z,101081.63
2018-06-14T02:47:58.708Z,101081.09
2018-06-14T02:48:20.451Z,101078.08
2018-06-14T02:48:42.217Z,101082.02
2018-06-14T02:49:03.978Z,101080.70
2018-06-14T02:49:25.734Z,101082.93
2018-06-14T02:49:47.487Z,101078.47
2018-06-14T02:50:10.073Z,101083.33
2018-06-14T02:50:31.845Z,101081.63
2018-06-14T02:50:53.604Z,101081.63
2018-06-14T02:51:15.360Z,101086.08
2018-06-14T02:51:37.149Z,101082.41
2018-06-14T02:51:58.921Z,101082.53
2018-06-14T02:52:20.692Z,101082.02
2018-06-14T02:52:42.456Z,101089.88
2018-06-14T02:53:04.227Z,101080.70
2018-06-14T02:53:25.970Z,101085.95
2018-06-14T02:53:47.722Z,101082.80
2018-06-14T02:54:09.490Z,101081.49
2018-06-14T02:54:31.235Z,101086.86
2018-06-14T02:54:53.003Z,101084.64
2018-06-14T02:55:14.760Z,101081.09
2018-06-14T02:55:36.640Z,101085.95
2018-06-14T02:55:58.397Z,101082.41
2018-06-14T02:56:20.155Z,101082.41
2018-06-14T02:56:41.920Z,101083.72
2018-06-14T02:57:03.676Z,101085.42
2018-06-14T02:57:25.430Z,101080.18
2018-06-14T02:57:47.194Z,101081.89
2018-06-14T02:58:08.935Z,101084.12
2018-06-14T02:58:30.704Z,101084.12
2018-06-14T02:58:52.471Z,101083.20
2018-06-14T02:59:14.211Z,101080.05
2018-06-14T02:59:35.974Z,101087.14
2018-06-14T02:59:57.883Z,101079.66
2018-06-14T03:00:19.635Z,101080.05
2018-06-14T03:00:41.391Z,101082.28
2018-06-14T03:01:03.142Z,101081.89
2018-06-14T03:01:24.895Z,101080.45
2018-06-14T03:01:46.659Z,101080.05
2018-06-14T03:02:08.424Z,101078.74
2018-06-14T03:02:30.342Z,101076.91
2018-06-14T03:02:52.088Z,101075.59
2018-06-14T03:03:13.843Z,101074.28
2018-06-14T03:03:35.589Z,101078.34
2018-06-14T03:03:57.443Z,101080.05
2018-06-14T03:04:19.615Z,101073.89
2018-06-14T03:04:41.359Z,101073.89
2018-06-14T03:05:03.113Z,101073.50
2018-06-14T03:05:24.972Z,101074.28
2018-06-14T03:05:46.731Z,101072.58
2018-06-14T03:06:08.503Z,101064.58
2018-06-14T03:06:30.258Z,101070.35
2018-06-14T03:06:52.097Z,101071.66
2018-06-14T03:07:19.070Z,101069.44
2018-06-14T03:07:40.819Z,101072.06
2018-06-14T03:08:02.571Z,101072.97
2018-06-14T03:08:24.326Z,101071.14
2018-06-14T03:08:46.079Z,101074.68
2018-06-14T03:09:08.684Z,101073.38
2018-06-14T03:09:30.451Z,101075.99
2018-06-14T03:09:52.234Z,101072.06
2018-06-14T03:10:13.988Z,101074.16
2018-06-14T03:10:35.769Z,101073.38
2018-06-14T03:10:57.518Z,101075.99
2018-06-14T03:11:19.297Z,101076.78
2018-06-14T03:11:41.072Z,101076.78
2018-06-14T03:12:02.992Z,101072.84
2018-06-14T03:12:24.751Z,101074.16
2018-06-14T03:12:46.533Z,101071.37
2018-06-14T03:13:08.287Z,101071.02
2018-06-14T03:13:30.041Z,101068.39
2018-06-14T03:13:51.801Z,101071.53
2018-06-14T03:14:13.612Z,101068.75
2018-06-14T03:14:35.375Z,101076.27
2018-06-14T03:14:57.123Z,101074.39
2018-06-14T03:15:18.880Z,101073.08
2018-06-14T03:15:40.648Z,101076.63
2018-06-14T03:16:02.423Z,101071.37
2018-06-14T03:16:24.183Z,101074.00
2018-06-14T03:16:45.960Z,101071.37
2018-06-14T03:17:07.916Z,101072.33
2018-06-14T03:17:29.671Z,101073.08
2018-06-14T03:17:51.423Z,101071.37
2018-06-14T03:18:13.200Z,101067.84
2018-06-14T03:18:34.956Z,101073.08
2018-06-14T03:18:56.737Z,101071.37
2018-06-14T03:19:18.474Z,101073.64
2018-06-14T03:19:40.246Z,101069.14
2018-06-14T03:20:02.016Z,101070.45
2018-06-14T03:20:24.789Z,101068.75
2018-06-14T03:20:46.535Z,101070.06
2018-06-14T03:21:08.287Z,101072.33
2018-06-14T03:21:30.057Z,101070.06
2018-06-14T03:21:51.817Z,101067.84
2018-06-14T03:22:13.907Z,101074.00
2018-06-14T03:22:35.656Z,101076.27
2018-06-14T03:22:57.939Z,101075.31
2018-06-14T03:23:19.696Z,101072.69
2018-06-14T03:23:41.461Z,101074.00
2018-06-14T03:24:03.208Z,101075.31
2018-06-14T03:24:24.951Z,101076.50
2018-06-14T03:24:46.758Z,101069.02
2018-06-14T03:25:08.541Z,101073.08
2018-06-14T03:25:30.299Z,101071.25
2018-06-14T03:25:52.060Z,101071.25
2018-06-14T03:26:13.832Z,101072.56
2018-06-14T03:26:35.591Z,101073.08
2018-06-14T03:26:57.360Z,101073.48
2018-06-14T03:27:19.158Z,101070.45
2018-06-14T03:27:40.913Z,101073.48
2018-06-14T03:28:02.654Z,101075.19
2018-06-14T03:28:24.409Z,101072.95
2018-06-14T03:28:46.163Z,101075.19
2018-06-14T03:29:07.919Z,101077.80
2018-06-14T03:29:29.667Z,101079.64
2018-06-14T03:29:51.420Z,101070.73
2018-06-14T03:30:13.225Z,101080.83
2018-06-14T03:30:34.956Z,101077.28
2018-06-14T03:30:56.704Z,101077.68
2018-06-14T03:31:18.474Z,101075.97
2018-06-14T03:31:40.234Z,101082.53
2018-06-14T03:32:02.525Z,101081.22
2018-06-14T03:32:24.278Z,101075.05
2018-06-14T03:32:46.040Z,101070.20
2018-06-14T03:33:07.804Z,101078.99
2018-06-14T03:33:29.568Z,101077.28
2018-06-14T03:33:51.315Z,101072.83
2018-06-14T03:34:13.085Z,101072.44
2018-06-14T03:34:34.845Z,101078.99
2018-06-14T03:34:56.611Z,101076.77
2018-06-14T03:35:18.799Z,101075.84
2018-06-14T03:35:40.545Z,101076.77
2018-06-14T03:36:02.300Z,101077.28
2018-06-14T03:36:24.073Z,101077.68
2018-06-14T03:36:45.862Z,101075.84
2018-06-14T03:37:07.762Z,101073.75
2018-06-14T03:37:29.520Z,101080.30
2018-06-14T03:37:51.280Z,101074.14
2018-06-14T03:38:13.039Z,101075.97
2018-06-14T03:38:34.787Z,101078.59
2018-06-14T03:38:56.552Z,101075.45
2018-06-14T03:39:18.327Z,101076.38
2018-06-14T03:39:40.234Z,101075.05
2018-06-14T03:40:01.985Z,101071.00
2018-06-14T03:40:23.732Z,101074.53
2018-06-14T03:40:45.524Z,101074.53
2018-06-14T03:41:07.260Z,101074.14
2018-06-14T03:41:29.026Z,101071.91
2018-06-14T03:41:50.803Z,101073.75
2018-06-14T03:42:13.610Z,101075.84
2018-06-14T03:42:39.624Z,101072.31
2018-06-14T03:43:01.375Z,101071.91
2018-06-14T03:43:23.118Z,101073.62
2018-06-14T03:43:44.896Z,101067.06
2018-06-14T03:44:06.651Z,101071.00
2018-06-14T03:44:28.428Z,101073.62
2018-06-14T03:44:50.189Z,101073.22
2018-06-14T03:45:16.305Z,101068.77
2018-06-14T03:45:38.062Z,101069.69
2018-06-14T03:45:59.838Z,101071.00
2018-06-14T03:46:21.615Z,101070.60
2018-06-14T03:46:43.404Z,101073.22
2018-06-14T03:47:06.706Z,101071.52
2018-06-14T03:47:28.459Z,101069.69
2018-06-14T03:47:51.250Z,101069.69
2018-06-14T03:48:13.008Z,101067.85
2018-06-14T03:48:34.788Z,101071.39
2018-06-14T03:48:56.551Z,101070.08
2018-06-14T03:49:18.302Z,101072.70
2018-06-14T03:49:41.318Z,101069.16
2018-06-14T03:50:03.065Z,101072.31
2018-06-14T03:50:24.830Z,101069.69
2018-06-14T03:50:46.595Z,101068.77
2018-06-14T03:51:08.368Z,101066.14
2018-06-14T03:51:30.118Z,101067.85
2018-06-14T03:51:51.944Z,101070.87
2018-06-14T03:52:14.011Z,101067.45
2018-06-14T03:52:35.758Z,101068.77
2018-06-14T03:52:57.520Z,101069.16
2018-06-14T03:53:19.274Z,101073.09
2018-06-14T03:53:41.041Z,101072.19
2018-06-14T03:54:02.794Z,101066.94
2018-06-14T03:54:24.550Z,101066.54
2018-06-14T03:54:46.307Z,101073.62
2018-06-14T03:55:08.068Z,101066.14
2018-06-14T03:55:29.819Z,101071.00
2018-06-14T03:55:51.645Z,101070.60
2018-06-14T03:56:13.427Z,101072.70
2018-06-14T03:56:35.183Z,101073.09
2018-06-14T03:56:57.155Z,101073.49
2018-06-14T03:57:18.900Z,101070.47
2018-06-14T03:57:40.652Z,101076.64
2018-06-14T03:58:02.419Z,101074.41
2018-06-14T03:58:24.242Z,101069.16
2018-06-14T03:58:45.964Z,101077.42
2018-06-14T03:59:07.751Z,101075.20
2018-06-14T03:59:29.528Z,101083.59
2018-06-14T03:59:51.266Z,101079.66
2018-06-14T04:00:13.050Z,101080.05
2018-06-14T04:00:34.794Z,101074.41
2018-06-14T04:00:56.564Z,101077.42
2018-06-14T04:01:18.326Z,101083.59
2018-06-14T04:01:40.068Z,101082.28
2018-06-14T04:02:01.847Z,101076.12
2018-06-14T04:02:23.615Z,101077.03
2018-06-14T04:02:45.390Z,101072.19
2018-06-14T04:03:07.148Z,101080.05
2018-06-14T04:03:28.897Z,101077.42
2018-06-14T04:03:50.696Z,101077.42
2018-06-14T04:04:12.482Z,101075.72
2018-06-14T04:04:34.250Z,101075.59
2018-06-14T04:04:56.013Z,101077.42
2018-06-14T04:05:17.758Z,101077.82
2018-06-14T04:05:39.514Z,101073.89
2018-06-14T04:06:01.278Z,101076.52
2018-06-14T04:06:55.872Z,101079.13
2018-06-14T04:07:17.665Z,101076.91
2018-06-14T04:07:39.414Z,101067.73
2018-06-14T04:08:01.187Z,101077.42
2018-06-14T04:08:22.942Z,101069.95
2018-06-14T04:08:44.690Z,101078.22
2018-06-14T04:09:06.444Z,101068.12
2018-06-14T04:09:28.199Z,101075.20